Terminal Aerodrome Forecast
Issued by NWS

Home | Current Version | Previous Version | Text Only | Print | Product List | Glossary On
Versions: 1 2 3 4 5 6 7 8 9 10 11 12 13 14 15 16 17 18
000
FTUS41 KBTV 280500 RRA
TAFMPV
TAF
KMPV 280541Z 2806/2906 00000KT 1/4SM FG VV001
     FM280800 00000KT 2SM BR OVC070
     FM281000 00000KT 1SM RA BR OVC030
     FM281200 09004KT 3SM -RA BR VCTS OVC015CB
     FM290000 28005KT 3SM -SHRA BR OVC020=

USA.gov is the U.S. government's official web portal to all federal, state and local government web resources and services.